Time;durP1;ratioP1;P1;durP2;ratioP2;P2;SDS_P1;SDS_P2;PMS_P1;PMS_P2;Temp;Humidity;BMP_temperature;BMP_pressure;BME280_temperature;BME280_humidity;BME280_pressure;Samples;Min_cycle;Max_cycle;Signal;HPM_P1;HPM_P2
2022/12/18 00:01:17;;;;;;;29.60;16.63;;;-3.40;99.90;;;;;;4988277;28;20208;-57
2022/12/18 00:03:44;;;;;;;26.87;16.10;;;-3.30;99.90;;;;;;4986541;28;20596;-57
2022/12/18 00:06:11;;;;;;;34.80;18.40;;;-3.20;99.90;;;;;;4979616;28;20211;-57
2022/12/18 00:08:37;;;;;;;31.87;17.73;;;-3.20;99.90;;;;;;4988319;28;20217;-56
2022/12/18 00:11:07;;;;;;;33.43;17.33;;;-3.10;99.90;;;;;;4990495;28;20220;-57
2022/12/18 00:13:34;;;;;;;31.83;17.93;;;-3.20;99.90;;;;;;4985470;28;20250;-63
2022/12/18 00:16:05;;;;;;;36.80;19.30;;;-3.20;99.90;;;;;;4975666;28;20705;-61
2022/12/18 00:18:31;;;;;;;34.37;17.80;;;-3.10;99.90;;;;;;4978788;28;20209;-61
2022/12/18 00:21:01;;;;;;;31.50;18.77;;;-2.90;99.90;;;;;;4978728;28;20193;-61
2022/12/18 00:23:27;;;;;;;40.90;20.27;;;-2.70;99.90;;;;;;4976775;28;20320;-62
2022/12/18 00:25:53;;;;;;;30.43;18.17;;;-2.60;99.90;;;;;;4978778;28;20214;-61
2022/12/18 00:28:18;;;;;;;32.30;18.53;;;-2.60;99.90;;;;;;4979131;28;20229;-60
2022/12/18 00:30:44;;;;;;;33.20;17.23;;;-2.60;99.90;;;;;;4978668;28;20205;-60
2022/12/18 00:33:09;;;;;;;38.47;20.20;;;-2.60;99.90;;;;;;4978266;28;20208;-57
2022/12/18 00:35:35;;;;;;;30.67;16.60;;;-2.60;99.90;;;;;;4977914;28;20224;-58
2022/12/18 00:38:00;;;;;;;44.30;23.17;;;-2.70;99.90;;;;;;4978477;28;20218;-56
2022/12/18 00:40:26;;;;;;;34.53;18.80;;;-2.80;99.90;;;;;;4978202;28;20204;-57
2022/12/18 00:42:57;;;;;;;27.77;15.67;;;-3.00;99.90;;;;;;4984723;28;20279;-56
2022/12/18 00:45:29;;;;;;;34.97;19.27;;;-3.10;99.90;;;;;;4979036;28;20637;-57
2022/12/18 00:47:55;;;;;;;31.20;18.00;;;-3.20;99.90;;;;;;4975921;28;20263;-57
2022/12/18 00:50:22;;;;;;;34.77;18.77;;;-3.20;99.90;;;;;;4978786;28;20209;-57
2022/12/18 00:52:48;;;;;;;36.77;18.67;;;-3.20;99.90;;;;;;4978524;28;20225;-57
2022/12/18 00:55:13;;;;;;;29.80;17.37;;;-3.10;99.90;;;;;;4978484;28;20754;-56
2022/12/18 00:57:39;;;;;;;35.33;18.13;;;-3.20;99.90;;;;;;4978416;28;20212;-56
2022/12/18 01:00:07;;;;;;;36.53;20.43;;;-3.20;99.90;;;;;;4977273;28;20239;-58
2022/12/18 01:02:32;;;;;;;31.83;17.93;;;-3.20;99.90;;;;;;4978337;28;20216;-57
2022/12/18 01:04:58;;;;;;;33.70;19.70;;;-3.20;99.90;;;;;;4978554;28;20204;-57
2022/12/18 01:07:23;;;;;;;34.70;16.00;;;-3.20;99.90;;;;;;4978277;28;20358;-57
2022/12/18 01:09:49;;;;;;;33.50;17.07;;;-3.30;99.90;;;;;;4977502;28;20205;-57
2022/12/18 01:12:14;;;;;;;30.60;16.00;;;-3.30;99.90;;;;;;4976307;28;20196;-56
2022/12/18 01:14:40;;;;;;;34.97;18.37;;;-3.30;99.90;;;;;;4977907;28;20558;-56
2022/12/18 01:17:05;;;;;;;36.17;16.27;;;-3.30;99.90;;;;;;4976728;28;20220;-55
2022/12/18 01:19:31;;;;;;;32.43;16.00;;;-3.30;99.90;;;;;;4978011;28;20204;-57
2022/12/18 01:21:57;;;;;;;34.87;18.70;;;-3.40;99.90;;;;;;4977771;28;20193;-56
2022/12/18 01:24:23;;;;;;;31.90;18.27;;;-3.30;99.90;;;;;;4977922;28;20200;-56
2022/12/18 01:26:48;;;;;;;34.23;17.03;;;-3.40;99.90;;;;;;4976434;28;20750;-56
2022/12/18 01:29:14;;;;;;;44.50;21.67;;;-3.40;99.90;;;;;;4978712;28;20208;-56
2022/12/18 01:31:39;;;;;;;38.07;20.07;;;-3.40;99.90;;;;;;4977647;28;20208;-56
2022/12/18 01:34:05;;;;;;;34.67;18.17;;;-3.30;99.90;;;;;;4977822;28;20223;-56
2022/12/18 01:36:34;;;;;;;32.73;16.10;;;-3.30;99.90;;;;;;4975927;28;20245;-55
2022/12/18 01:39:01;;;;;;;38.70;19.17;;;-3.30;99.90;;;;;;4978818;28;20211;-56
2022/12/18 01:42:01;;;;;;;39.50;18.70;;;-3.30;99.90;;;;;;4973592;28;20264;-56
2022/12/18 01:44:55;;;;;;;32.13;16.63;;;-3.30;99.90;;;;;;4976316;28;20236;-56
2022/12/18 01:47:26;;;;;;;34.90;19.17;;;-3.40;99.90;;;;;;4975676;28;20200;-57
2022/12/18 01:49:52;;;;;;;43.23;21.63;;;-3.50;99.90;;;;;;4977845;28;20197;-57
2022/12/18 01:52:19;;;;;;;35.37;17.80;;;-3.50;99.90;;;;;;4978013;28;20252;-57
2022/12/18 01:54:46;;;;;;;37.50;17.47;;;-3.40;99.90;;;;;;4977686;28;20674;-57
2022/12/18 01:57:11;;;;;;;39.87;21.40;;;-3.50;99.90;;;;;;4975664;28;20212;-57
2022/12/18 01:59:39;;;;;;;43.13;22.87;;;-3.60;99.90;;;;;;4977451;28;20406;-57
2022/12/18 02:02:06;;;;;;;45.67;21.40;;;-3.70;99.90;;;;;;4977524;28;20224;-56
2022/12/18 02:04:31;;;;;;;59.50;28.53;;;-3.70;99.90;;;;;;4978091;28;20745;-57
2022/12/18 02:07:25;;;;;;;80.87;35.33;;;-3.60;99.90;;;;;;4977473;28;20208;-56
2022/12/18 02:09:59;;;;;;;40.43;19.37;;;-3.60;99.90;;;;;;4970170;28;20283;-56
2022/12/18 02:12:33;;;;;;;44.73;22.87;;;-3.50;99.90;;;;;;4978758;28;20200;-56
2022/12/18 02:15:05;;;;;;;38.80;19.93;;;-3.40;99.90;;;;;;4981892;28;20287;-56
2022/12/18 02:17:54;;;;;;;48.57;23.97;;;-3.40;99.90;;;;;;4976198;28;20219;-57
2022/12/18 02:20:26;;;;;;;84.80;37.70;;;-3.40;99.90;;;;;;4977470;28;20189;-58
2022/12/18 02:23:36;;;;;;;38.17;18.10;;;-3.40;99.90;;;;;;4972707;28;20746;-58
2022/12/18 02:26:14;;;;;;;37.30;17.53;;;-3.30;99.90;;;;;;4976987;28;20227;-58
2022/12/18 02:29:06;;;;;;;30.77;16.27;;;-3.40;99.90;;;;;;4975347;28;20286;-57
2022/12/18 02:31:39;;;;;;;34.53;17.07;;;-3.40;99.90;;;;;;4975362;28;20209;-56
2022/12/18 02:34:08;;;;;;;35.57;17.40;;;-3.50;99.90;;;;;;4976910;28;20216;-57
2022/12/18 02:36:35;;;;;;;35.13;16.27;;;-3.60;99.90;;;;;;4976762;28;20209;-56
2022/12/18 02:39:02;;;;;;;33.50;17.33;;;-3.60;99.90;;;;;;4975146;28;20239;-57
2022/12/18 02:41:29;;;;;;;42.63;19.00;;;-3.60;99.90;;;;;;4976631;28;20275;-57
2022/12/18 02:43:59;;;;;;;37.97;20.43;;;-3.60;99.90;;;;;;4976897;28;20228;-57
2022/12/18 02:46:33;;;;;;;34.30;18.43;;;-3.60;99.90;;;;;;4974806;28;21001;-57
2022/12/18 02:49:28;;;;;;;38.67;18.37;;;-3.50;99.90;;;;;;4974936;28;20204;-56
2022/12/18 02:52:02;;;;;;;33.53;17.03;;;-3.50;99.90;;;;;;4974574;28;20574;-55
2022/12/18 02:54:47;;;;;;;36.70;18.10;;;-3.40;99.90;;;;;;4974732;28;20729;-56
2022/12/18 02:57:24;;;;;;;34.77;18.00;;;-3.40;99.90;;;;;;4973253;28;20239;-56
2022/12/18 03:00:00;;;;;;;32.60;16.97;;;-3.40;99.90;;;;;;4976314;28;20295;-56
2022/12/18 03:02:46;;;;;;;34.00;17.67;;;-3.40;99.90;;;;;;4972548;28;20200;-56
2022/12/18 03:05:20;;;;;;;34.57;16.63;;;-3.40;99.90;;;;;;4974603;28;20212;-56
2022/12/18 03:07:59;;;;;;;37.03;19.17;;;-3.50;99.90;;;;;;4975937;28;20629;-56
2022/12/18 03:10:29;;;;;;;27.87;15.00;;;-3.50;99.90;;;;;;4976834;28;20247;-57
2022/12/18 03:13:02;;;;;;;34.30;17.37;;;-3.50;99.90;;;;;;4979960;28;21222;-57
2022/12/18 03:15:36;;;;;;;33.00;15.80;;;-3.60;99.90;;;;;;4980292;28;20209;-57
2022/12/18 03:18:07;;;;;;;35.63;17.17;;;-3.50;99.90;;;;;;4978725;28;20203;-58
2022/12/18 03:20:35;;;;;;;32.37;16.07;;;-3.50;99.90;;;;;;4980465;28;20201;-58
2022/12/18 03:23:10;;;;;;;34.50;16.57;;;-3.50;99.90;;;;;;4980225;28;20275;-57
2022/12/18 03:25:39;;;;;;;35.00;16.20;;;-3.60;99.90;;;;;;4978652;28;20810;-57
2022/12/18 03:28:10;;;;;;;27.27;15.13;;;-3.60;99.90;;;;;;4980096;28;20870;-57
2022/12/18 03:30:39;;;;;;;29.53;15.63;;;-3.60;99.90;;;;;;4978793;28;20292;-57
2022/12/18 03:33:14;;;;;;;39.33;18.17;;;-3.60;99.90;;;;;;4979705;28;20216;-58
2022/12/18 03:35:42;;;;;;;28.13;15.60;;;-3.60;99.90;;;;;;4981066;28;20723;-57
2022/12/18 03:38:09;;;;;;;27.90;16.07;;;-3.70;99.90;;;;;;4979015;28;20334;-58
2022/12/18 03:40:44;;;;;;;29.83;16.23;;;-3.80;99.90;;;;;;4978234;28;20219;-58
2022/12/18 03:43:32;;;;;;;35.50;15.73;;;-3.80;99.90;;;;;;4977422;28;20665;-57
2022/12/18 03:46:07;;;;;;;37.47;17.07;;;-3.90;99.90;;;;;;4975035;28;20693;-57
2022/12/18 03:48:41;;;;;;;33.93;16.53;;;-3.90;99.90;;;;;;4979953;28;20210;-56
2022/12/18 03:51:12;;;;;;;31.73;15.37;;;-3.90;99.90;;;;;;4979770;28;20204;-56
2022/12/18 03:53:58;;;;;;;32.50;17.07;;;-3.90;99.90;;;;;;4979170;28;20224;-57
2022/12/18 03:56:29;;;;;;;35.30;17.00;;;-3.90;99.90;;;;;;4976683;28;20193;-56
2022/12/18 03:58:56;;;;;;;36.10;17.57;;;-3.90;99.90;;;;;;4979130;28;20415;-56
2022/12/18 04:01:28;;;;;;;33.20;17.00;;;-3.80;99.90;;;;;;4977679;28;20197;-57
2022/12/18 04:03:54;;;;;;;37.57;18.17;;;-3.70;99.90;;;;;;4979416;28;20232;-57
2022/12/18 04:06:21;;;;;;;31.80;15.57;;;-3.60;99.90;;;;;;4979567;28;20551;-58
2022/12/18 04:08:47;;;;;;;31.90;17.57;;;-3.60;99.90;;;;;;4978857;28;20537;-57
2022/12/18 04:11:12;;;;;;;32.23;18.40;;;-3.60;99.90;;;;;;4979321;28;20219;-56
2022/12/18 04:13:38;;;;;;;33.33;16.87;;;-3.60;99.90;;;;;;4977550;28;20223;-57
2022/12/18 04:16:04;;;;;;;36.33;18.07;;;-3.60;99.90;;;;;;4979467;28;20679;-57
2022/12/18 04:18:30;;;;;;;38.53;18.63;;;-3.60;99.90;;;;;;4979261;28;20891;-56
2022/12/18 04:20:55;;;;;;;38.63;18.33;;;-3.60;99.90;;;;;;4979145;28;20203;-59
2022/12/18 04:23:21;;;;;;;40.57;19.97;;;-3.70;99.90;;;;;;4978396;28;20196;-57
2022/12/18 04:25:49;;;;;;;36.20;18.83;;;-3.70;99.90;;;;;;4977206;28;20224;-57
2022/12/18 04:28:14;;;;;;;39.30;18.73;;;-3.70;99.90;;;;;;4979335;28;20578;-58
2022/12/18 04:30:40;;;;;;;44.57;20.17;;;-3.70;99.90;;;;;;4979403;28;20193;-56
2022/12/18 04:33:10;;;;;;;39.53;20.47;;;-3.70;99.90;;;;;;4978638;28;20213;-57
2022/12/18 04:35:36;;;;;;;43.57;19.87;;;-3.80;99.90;;;;;;4977631;28;20209;-57
2022/12/18 04:38:01;;;;;;;42.60;20.70;;;-3.80;99.90;;;;;;4974836;28;20212;-57
2022/12/18 04:40:27;;;;;;;42.90;19.97;;;-3.90;99.90;;;;;;4978424;28;20605;-57
2022/12/18 04:42:52;;;;;;;43.17;21.57;;;-3.90;99.90;;;;;;4978899;28;20200;-57
2022/12/18 04:45:18;;;;;;;47.50;21.00;;;-3.90;99.90;;;;;;4978679;28;20200;-57
2022/12/18 04:47:43;;;;;;;48.53;22.03;;;-4.00;99.90;;;;;;4978852;28;20271;-56
2022/12/18 04:50:09;;;;;;;48.07;21.13;;;-4.00;99.90;;;;;;4979188;28;20192;-57
2022/12/18 04:52:36;;;;;;;44.80;22.43;;;-4.00;99.90;;;;;;4978234;28;20248;-57
2022/12/18 04:55:01;;;;;;;49.23;24.30;;;-4.10;99.90;;;;;;4978461;28;20197;-58
2022/12/18 04:57:27;;;;;;;48.67;23.20;;;-4.10;99.90;;;;;;4978451;28;20319;-57
2022/12/18 04:59:52;;;;;;;45.37;22.63;;;-4.10;99.90;;;;;;4978139;28;20203;-57
2022/12/18 05:02:18;;;;;;;46.07;21.13;;;-4.00;99.90;;;;;;4978352;28;20275;-56
2022/12/18 05:04:43;;;;;;;45.47;23.13;;;-4.10;99.90;;;;;;4976915;28;20283;-57
2022/12/18 05:07:09;;;;;;;52.30;24.20;;;-4.00;99.90;;;;;;4978294;28;20380;-56
2022/12/18 05:09:34;;;;;;;43.57;21.83;;;-4.00;99.90;;;;;;4977860;28;20279;-56
2022/12/18 05:11:59;;;;;;;55.97;23.20;;;-4.00;99.90;;;;;;4978446;28;20662;-56
2022/12/18 05:14:27;;;;;;;48.53;25.60;;;-3.90;99.90;;;;;;4978259;28;20272;-57
2022/12/18 05:16:52;;;;;;;55.13;25.00;;;-4.00;99.90;;;;;;4976096;28;20196;-56
2022/12/18 05:19:18;;;;;;;58.87;24.67;;;-4.10;99.90;;;;;;4978142;28;20677;-56
2022/12/18 05:21:43;;;;;;;52.50;24.37;;;-4.30;99.90;;;;;;4978527;28;20201;-56
2022/12/18 05:24:09;;;;;;;49.63;23.23;;;-4.30;99.90;;;;;;4976284;28;20656;-56
2022/12/18 05:26:34;;;;;;;54.07;24.80;;;-4.30;99.90;;;;;;4977980;28;20296;-57
2022/12/18 05:29:00;;;;;;;59.40;27.10;;;-4.30;99.90;;;;;;4977919;28;20193;-57
2022/12/18 05:31:25;;;;;;;55.17;25.80;;;-4.20;99.90;;;;;;4976663;28;20196;-57
2022/12/18 05:33:51;;;;;;;57.73;24.33;;;-4.10;99.90;;;;;;4972394;28;20209;-57
2022/12/18 05:36:16;;;;;;;64.57;28.27;;;-4.00;99.90;;;;;;4977352;28;20733;-56
2022/12/18 05:38:42;;;;;;;56.23;25.47;;;-4.00;99.90;;;;;;4977651;28;20299;-57
2022/12/18 05:41:08;;;;;;;57.90;25.60;;;-4.00;99.90;;;;;;4976960;28;20626;-58
2022/12/18 05:43:36;;;;;;;56.10;25.77;;;-3.90;99.90;;;;;;4977280;28;20710;-57
2022/12/18 05:46:12;;;;;;;71.37;29.70;;;-3.90;99.90;;;;;;4976295;28;20201;-57
2022/12/18 05:48:38;;;;;;;54.23;25.90;;;-3.80;99.90;;;;;;4977011;28;20506;-57
2022/12/18 05:51:10;;;;;;;59.33;27.43;;;-3.90;99.90;;;;;;4977109;28;20208;-57
2022/12/18 05:53:36;;;;;;;54.37;22.90;;;-3.90;99.90;;;;;;4975817;28;20303;-57
2022/12/18 05:56:04;;;;;;;54.00;24.73;;;-3.80;99.90;;;;;;4977755;28;20224;-58
2022/12/18 05:58:31;;;;;;;64.73;27.67;;;-3.90;99.90;;;;;;4976921;28;20203;-57
2022/12/18 06:01:05;;;;;;;63.90;25.97;;;-4.10;99.90;;;;;;4977127;28;20280;-58
2022/12/18 06:03:31;;;;;;;64.17;28.53;;;-4.10;99.90;;;;;;4975231;28;20209;-56
2022/12/18 06:05:56;;;;;;;57.90;25.93;;;-4.00;99.90;;;;;;4977066;28;20208;-62
2022/12/18 06:08:21;;;;;;;54.50;24.60;;;-4.10;99.90;;;;;;4977180;28;20288;-57
2022/12/18 06:10:54;;;;;;;47.77;21.90;;;-4.20;99.90;;;;;;4977124;28;20674;-57
2022/12/18 06:13:21;;;;;;;49.63;24.07;;;-4.20;99.90;;;;;;4976083;28;20283;-57
2022/12/18 06:15:46;;;;;;;49.20;22.30;;;-4.20;99.90;;;;;;4974161;28;20217;-57
2022/12/18 06:18:12;;;;;;;53.27;23.90;;;-4.30;99.90;;;;;;4976887;28;20200;-57
2022/12/18 06:20:39;;;;;;;43.30;22.53;;;-4.30;99.90;;;;;;4975002;28;20203;-56
2022/12/18 06:23:06;;;;;;;55.80;26.93;;;-4.40;99.90;;;;;;4975875;28;20216;-56
2022/12/18 06:25:32;;;;;;;51.83;24.40;;;-4.20;99.90;;;;;;4973900;28;20271;-56
2022/12/18 06:27:58;;;;;;;42.97;21.17;;;-4.20;99.90;;;;;;4977067;28;20204;-56
2022/12/18 06:30:24;;;;;;;43.53;21.67;;;-4.20;99.90;;;;;;4977143;28;20259;-56
2022/12/18 06:32:49;;;;;;;47.10;22.53;;;-4.20;99.90;;;;;;4976567;28;20216;-56
2022/12/18 06:35:15;;;;;;;45.90;21.23;;;-4.10;99.90;;;;;;4977365;28;20652;-57
2022/12/18 06:37:41;;;;;;;47.30;23.43;;;-4.10;99.90;;;;;;4974911;28;20299;-57
2022/12/18 06:40:07;;;;;;;50.90;24.83;;;-4.00;99.90;;;;;;4977046;28;20497;-57
2022/12/18 06:42:32;;;;;;;52.27;23.63;;;-4.00;99.90;;;;;;4977034;28;20201;-56
2022/12/18 06:44:58;;;;;;;49.00;24.30;;;-4.00;99.90;;;;;;4976420;28;20200;-56
2022/12/18 06:47:24;;;;;;;51.13;24.03;;;-4.00;99.90;;;;;;4976511;28;20223;-56
2022/12/18 06:49:49;;;;;;;52.73;24.90;;;-4.00;99.90;;;;;;4976637;28;20251;-56
2022/12/18 06:52:15;;;;;;;52.27;22.70;;;-4.00;99.90;;;;;;4975245;28;20220;-56
2022/12/18 06:54:40;;;;;;;55.80;24.67;;;-4.10;99.90;;;;;;4976513;28;20299;-57
2022/12/18 06:57:06;;;;;;;59.13;29.67;;;-4.10;99.90;;;;;;4976527;28;20291;-56
2022/12/18 06:59:31;;;;;;;62.17;28.03;;;-4.10;99.90;;;;;;4976764;28;20196;-56
2022/12/18 07:01:56;;;;;;;58.67;25.50;;;-4.00;99.90;;;;;;4976061;28;20287;-57
2022/12/18 07:04:26;;;;;;;50.60;23.57;;;-4.00;99.90;;;;;;4976504;28;20207;-58
2022/12/18 07:06:52;;;;;;;59.10;27.07;;;-4.00;99.90;;;;;;4972108;28;20295;-57
2022/12/18 07:09:17;;;;;;;61.97;27.87;;;-4.00;99.90;;;;;;4976066;28;20382;-57
2022/12/18 07:11:43;;;;;;;52.70;23.63;;;-4.00;99.90;;;;;;4976873;28;20204;-57
2022/12/18 07:14:08;;;;;;;54.07;23.97;;;-3.90;99.90;;;;;;4975880;28;20702;-56
2022/12/18 07:16:33;;;;;;;61.07;25.40;;;-3.80;99.90;;;;;;4974755;28;20201;-57
2022/12/18 07:18:59;;;;;;;62.70;29.37;;;-3.70;99.90;;;;;;4976563;28;20188;-56
2022/12/18 07:21:25;;;;;;;59.87;26.60;;;-3.70;99.90;;;;;;4976540;28;20207;-57
2022/12/18 07:23:50;;;;;;;62.83;28.70;;;-3.70;99.90;;;;;;4976184;28;20303;-57
2022/12/18 07:26:18;;;;;;;59.53;27.60;;;-3.70;99.90;;;;;;4976408;28;20216;-56
2022/12/18 07:28:44;;;;;;;59.43;25.60;;;-3.80;99.90;;;;;;4974939;28;20211;-57
2022/12/18 07:31:12;;;;;;;54.83;27.93;;;-3.80;99.90;;;;;;4975891;28;20209;-57
2022/12/18 07:33:38;;;;;;;60.87;26.23;;;-3.80;99.90;;;;;;4975864;28;20313;-56
2022/12/18 07:36:05;;;;;;;59.20;27.30;;;-3.80;99.90;;;;;;4975966;28;20283;-56
2022/12/18 07:38:32;;;;;;;51.53;24.70;;;-3.90;99.90;;;;;;4975708;28;20746;-56
2022/12/18 07:41:09;;;;;;;51.83;24.27;;;-3.90;99.90;;;;;;4976054;28;20925;-56
2022/12/18 07:43:35;;;;;;;47.40;25.37;;;-4.00;99.90;;;;;;4976373;28;20208;-56
2022/12/18 07:46:01;;;;;;;49.17;24.97;;;-4.00;99.90;;;;;;4974203;28;20208;-56
2022/12/18 07:48:28;;;;;;;51.97;23.70;;;-4.10;99.90;;;;;;4998006;28;20201;-57
2022/12/18 07:50:57;;;;;;;45.60;22.17;;;-4.00;99.90;;;;;;4976082;28;20213;-56
2022/12/18 07:53:23;;;;;;;45.90;22.47;;;-4.00;99.90;;;;;;4975839;28;20229;-56
2022/12/18 07:55:48;;;;;;;41.47;21.80;;;-4.00;99.90;;;;;;4975888;28;20193;-57
2022/12/18 07:58:13;;;;;;;42.40;21.57;;;-4.00;99.90;;;;;;4976050;28;20941;-56
2022/12/18 08:00:39;;;;;;;40.80;20.03;;;-4.00;99.90;;;;;;4979566;28;20274;-56
2022/12/18 08:03:04;;;;;;;43.10;20.73;;;-4.00;99.90;;;;;;4979512;28;20685;-56
2022/12/18 08:05:30;;;;;;;37.43;18.47;;;-4.00;99.90;;;;;;4979210;28;20699;-56
2022/12/18 08:07:56;;;;;;;39.07;17.53;;;-3.90;99.90;;;;;;4979074;28;20282;-56
2022/12/18 08:10:22;;;;;;;40.27;18.67;;;-3.90;99.90;;;;;;4979387;28;20185;-56
2022/12/18 08:12:51;;;;;;;43.03;19.33;;;-3.80;99.90;;;;;;4977538;28;20217;-56
2022/12/18 08:15:16;;;;;;;43.77;21.10;;;-3.70;99.90;;;;;;4979448;28;20621;-56
2022/12/18 08:17:42;;;;;;;42.73;20.03;;;-3.80;99.90;;;;;;4979122;28;20207;-56
2022/12/18 08:20:08;;;;;;;38.53;19.17;;;-3.80;99.90;;;;;;4979273;28;20259;-57
2022/12/18 08:22:39;;;;;;;44.33;20.73;;;-3.80;99.90;;;;;;4978883;28;20953;-56
2022/12/18 08:25:05;;;;;;;45.23;21.87;;;-3.80;99.90;;;;;;4978929;28;20212;-57
2022/12/18 08:27:30;;;;;;;44.67;22.00;;;-3.70;99.90;;;;;;4978997;28;20606;-57
2022/12/18 08:29:56;;;;;;;44.53;20.73;;;-3.50;99.90;;;;;;4978997;28;20209;-57
2022/12/18 08:32:22;;;;;;;38.53;18.77;;;-3.50;99.90;;;;;;4978602;28;20553;-56
2022/12/18 08:34:48;;;;;;;40.53;18.83;;;-3.50;99.90;;;;;;4978850;28;20208;-56
2022/12/18 08:37:13;;;;;;;47.63;21.57;;;-3.50;99.90;;;;;;4976829;28;20403;-57
2022/12/18 08:39:39;;;;;;;48.07;20.47;;;-3.60;99.90;;;;;;4978801;28;20303;-57
2022/12/18 08:44:49;;;;;;;40.90;19.73;;;-3.60;99.90;;;;;;4975648;28;20208;-57
2022/12/18 08:47:14;;;;;;;36.77;17.40;;;-3.50;99.90;;;;;;4979045;28;20657;-57
2022/12/18 08:49:40;;;;;;;44.40;20.30;;;-3.40;99.90;;;;;;4978752;28;20215;-57
2022/12/18 08:52:05;;;;;;;42.33;20.27;;;-3.40;99.90;;;;;;4978548;28;20235;-57
2022/12/18 08:54:31;;;;;;;42.60;20.43;;;-3.30;99.90;;;;;;4976667;28;20216;-57
2022/12/18 08:56:56;;;;;;;39.90;20.90;;;-3.30;99.90;;;;;;4978706;28;20208;-56
2022/12/18 08:59:23;;;;;;;41.73;21.73;;;-3.30;99.90;;;;;;4978182;28;20201;-57
2022/12/18 09:01:49;;;;;;;42.03;20.93;;;-3.30;99.90;;;;;;4977973;28;20678;-55
2022/12/18 09:04:14;;;;;;;43.27;19.13;;;-3.20;99.90;;;;;;4978714;28;20203;-56
2022/12/18 09:06:40;;;;;;;40.57;19.43;;;-3.10;99.90;;;;;;4977939;28;20347;-56
2022/12/18 09:09:06;;;;;;;38.57;19.53;;;-3.00;99.90;;;;;;4977626;28;20926;-56
2022/12/18 09:11:32;;;;;;;44.60;20.57;;;-3.00;99.90;;;;;;4978819;28;20288;-56
2022/12/18 09:13:59;;;;;;;36.13;18.27;;;-2.90;99.90;;;;;;4978395;28;20244;-55
2022/12/18 09:16:27;;;;;;;33.57;18.93;;;-2.90;99.90;;;;;;4978246;28;20203;-56
2022/12/18 09:18:59;;;;;;;37.97;18.67;;;-2.90;99.90;;;;;;4978352;28;20204;-56
2022/12/18 09:21:26;;;;;;;37.93;17.90;;;-3.00;99.90;;;;;;4975521;28;20259;-56
2022/12/18 09:23:53;;;;;;;37.90;19.10;;;-2.90;99.90;;;;;;4978203;28;20243;-57
2022/12/18 09:26:19;;;;;;;39.77;18.50;;;-2.90;99.90;;;;;;4976320;28;20217;-57
2022/12/18 09:28:45;;;;;;;40.07;19.50;;;-2.90;99.90;;;;;;4978253;28;20212;-56
2022/12/18 09:31:12;;;;;;;32.33;17.77;;;-2.90;99.90;;;;;;4977469;28;20209;-57
2022/12/18 09:33:38;;;;;;;37.97;18.13;;;-3.00;99.90;;;;;;4978119;28;20586;-57
2022/12/18 09:36:06;;;;;;;37.13;19.23;;;-3.00;99.90;;;;;;4977918;28;20208;-56
2022/12/18 09:38:32;;;;;;;33.20;18.70;;;-3.10;99.90;;;;;;4978214;28;20201;-56
2022/12/18 09:41:05;;;;;;;34.37;17.63;;;-3.10;99.90;;;;;;4977701;28;20196;-57
2022/12/18 09:43:40;;;;;;;34.33;18.20;;;-3.10;99.90;;;;;;4977707;28;20209;-56
2022/12/18 09:46:10;;;;;;;30.63;18.33;;;-3.10;99.90;;;;;;4977506;28;20242;-56
2022/12/18 09:48:40;;;;;;;34.37;17.40;;;-3.10;99.90;;;;;;4977091;28;20200;-56
2022/12/18 09:51:18;;;;;;;34.67;16.97;;;-3.10;99.90;;;;;;4977375;28;20197;-56
2022/12/18 09:54:05;;;;;;;36.07;19.13;;;-3.10;99.90;;;;;;4976974;28;20557;-58
2022/12/18 09:56:37;;;;;;;41.90;20.43;;;-3.10;99.90;;;;;;4975706;28;20211;-56
2022/12/18 09:59:04;;;;;;;36.03;18.90;;;-3.10;99.90;;;;;;4975534;28;20759;-56
2022/12/18 10:01:31;;;;;;;34.83;18.30;;;-3.10;99.90;;;;;;4977576;28;20201;-57
2022/12/18 10:03:57;;;;;;;28.47;16.80;;;-3.00;99.90;;;;;;4977065;28;20216;-57
2022/12/18 10:06:38;;;;;;;30.20;15.77;;;-2.90;99.90;;;;;;4977334;28;20196;-57
2022/12/18 10:09:15;;;;;;;37.77;18.27;;;-2.80;99.90;;;;;;4973604;28;20205;-56
2022/12/18 10:12:01;;;;;;;27.23;15.63;;;-2.70;99.90;;;;;;4976207;28;20207;-57
2022/12/18 10:14:42;;;;;;;28.00;16.33;;;-2.70;99.90;;;;;;4977297;28;20363;-56
2022/12/18 10:17:44;;;;;;;31.40;16.63;;;-2.70;99.90;;;;;;4974844;28;20207;-56
2022/12/18 10:20:29;;;;;;;33.10;17.37;;;-2.60;99.90;;;;;;4973635;28;20580;-56
2022/12/18 10:23:12;;;;;;;33.47;16.50;;;-2.60;99.90;;;;;;4972881;28;20197;-57
2022/12/18 10:25:53;;;;;;;35.83;17.93;;;-2.60;99.90;;;;;;4976031;28;20201;-56
2022/12/18 10:28:20;;;;;;;35.20;17.53;;;-2.60;99.90;;;;;;4974134;28;20569;-56
2022/12/18 10:30:45;;;;;;;32.93;19.17;;;-2.60;99.90;;;;;;4976675;28;20235;-57
2022/12/18 10:33:17;;;;;;;34.40;16.07;;;-2.60;99.90;;;;;;4975473;28;20225;-57
2022/12/18 10:35:45;;;;;;;36.80;18.17;;;-2.50;99.90;;;;;;4976435;28;20356;-59
2022/12/18 10:38:23;;;;;;;31.80;17.33;;;-2.50;99.90;;;;;;4975015;28;20700;-59
2022/12/18 10:40:58;;;;;;;32.53;15.83;;;-2.40;99.90;;;;;;4968480;28;20339;-60
2022/12/18 10:43:33;;;;;;;33.53;16.20;;;-2.40;99.90;;;;;;4975311;28;20223;-60
2022/12/18 10:46:07;;;;;;;32.90;16.40;;;-2.40;99.90;;;;;;4975138;28;20295;-57
2022/12/18 10:48:46;;;;;;;32.33;17.13;;;-2.40;99.90;;;;;;4970870;28;20216;-58
2022/12/18 10:51:20;;;;;;;35.17;17.20;;;-2.30;99.90;;;;;;4978571;28;20197;-58
2022/12/18 10:53:59;;;;;;;37.10;16.80;;;-2.30;99.90;;;;;;4975294;28;20216;-59
2022/12/18 10:56:28;;;;;;;31.50;17.30;;;-2.20;99.90;;;;;;4975715;28;20259;-58
2022/12/18 10:59:05;;;;;;;32.57;17.17;;;-2.20;99.90;;;;;;4972045;28;20228;-59
2022/12/18 11:01:49;;;;;;;38.90;18.30;;;-2.20;99.90;;;;;;4976461;28;20283;-60
2022/12/18 11:04:22;;;;;;;35.57;18.03;;;-2.20;99.90;;;;;;4976432;28;20693;-58
2022/12/18 11:07:06;;;;;;;39.30;19.80;;;-2.20;99.90;;;;;;4977023;28;20288;-56
2022/12/18 11:09:36;;;;;;;34.23;18.00;;;-2.20;99.90;;;;;;4972950;28;20204;-64
2022/12/18 11:12:24;;;;;;;36.90;19.67;;;-2.20;99.90;;;;;;4976272;28;20206;-58
2022/12/18 11:14:53;;;;;;;34.07;18.70;;;-2.20;99.90;;;;;;4975383;28;20563;-60
2022/12/18 11:17:30;;;;;;;38.93;20.90;;;-2.10;99.90;;;;;;4976044;28;20202;-61
2022/12/18 11:20:01;;;;;;;36.70;18.77;;;-2.00;99.90;;;;;;4972912;28;20203;-60
2022/12/18 11:22:33;;;;;;;33.40;18.83;;;-2.00;99.90;;;;;;4976142;28;20327;-60
2022/12/18 11:25:10;;;;;;;33.80;17.60;;;-1.90;99.90;;;;;;4974464;28;20252;-62
2022/12/18 11:27:38;;;;;;;40.83;21.87;;;-1.80;99.90;;;;;;4976772;28;20287;-63
2022/12/18 11:30:23;;;;;;;31.87;18.87;;;-1.80;99.90;;;;;;4975935;28;20259;-61
2022/12/18 11:33:06;;;;;;;31.73;18.27;;;-1.70;99.90;;;;;;4975108;28;20552;-61
2022/12/18 11:35:59;;;;;;;39.80;18.87;;;-1.70;99.90;;;;;;4975218;28;20209;-61
2022/12/18 11:38:29;;;;;;;32.07;18.13;;;-1.80;99.90;;;;;;4979424;28;20295;-61
2022/12/18 11:42:08;;;;;;;45.33;20.27;;;-1.80;99.90;;;;;;4979882;28;20193;-61
2022/12/18 11:44:21;;;;;;;37.33;19.27;;;-1.90;99.90;;;;;;4975225;28;20611;-63
2022/12/18 11:46:52;;;;;;;40.03;18.13;;;-1.90;99.90;;;;;;4980278;28;20247;-71
2022/12/18 11:49:34;;;;;;;39.93;17.77;;;-1.80;99.90;;;;;;4980084;28;20204;-60
2022/12/18 11:52:21;;;;;;;29.63;15.63;;;-1.80;99.90;;;;;;4979427;28;20999;-59
2022/12/18 11:54:46;;;;;;;30.60;16.80;;;-1.80;99.90;;;;;;4975040;28;20216;-59
2022/12/18 11:57:33;;;;;;;38.43;15.93;;;-1.90;99.90;;;;;;4979518;28;20211;-58
2022/12/18 12:00:13;;;;;;;31.47;16.93;;;-1.90;99.90;;;;;;4976524;28;20558;-62
2022/12/18 12:03:16;;;;;;;35.70;19.03;;;-1.90;99.90;;;;;;4977977;28;20200;-59
2022/12/18 12:05:56;;;;;;;29.20;16.00;;;-1.90;99.90;;;;;;4976227;28;20205;-69
2022/12/18 12:08:45;;;;;;;33.20;16.03;;;-1.90;99.90;;;;;;4972779;28;20227;-60
2022/12/18 12:11:45;;;;;;;30.77;16.80;;;-1.90;99.90;;;;;;4976539;28;20343;-59
2022/12/18 12:14:17;;;;;;;34.00;18.40;;;-1.80;99.90;;;;;;4977060;28;20295;-58
2022/12/18 12:16:56;;;;;;;30.03;18.13;;;-1.80;99.90;;;;;;4974597;28;20196;-59
2022/12/18 12:19:22;;;;;;;32.17;16.60;;;-1.80;99.90;;;;;;4979102;28;20289;-59
2022/12/18 12:22:18;;;;;;;40.10;18.47;;;-1.80;99.90;;;;;;4978145;28;20303;-60
2022/12/18 12:24:51;;;;;;;29.37;15.83;;;-1.90;99.90;;;;;;4977405;28;20215;-59
2022/12/18 12:27:50;;;;;;;31.50;17.37;;;-1.90;99.90;;;;;;4978120;28;20204;-59
2022/12/18 12:30:29;;;;;;;38.00;16.63;;;-1.90;99.90;;;;;;4967331;28;20781;-58
2022/12/18 12:33:13;;;;;;;30.80;16.80;;;-1.90;99.90;;;;;;4976497;28;20931;-59
2022/12/18 12:36:06;;;;;;;31.03;17.23;;;-1.90;99.90;;;;;;4978278;28;20282;-59
2022/12/18 12:38:42;;;;;;;36.67;18.37;;;-1.90;99.90;;;;;;4978345;28;20216;-59
2022/12/18 12:44:02;;;;;;;32.40;17.00;;;-1.80;99.90;;;;;;4975807;28;20227;-59
2022/12/18 12:46:32;;;;;;;38.57;21.27;;;-1.80;99.90;;;;;;4978912;28;20302;-58
2022/12/18 12:49:01;;;;;;;33.80;16.77;;;-1.80;99.90;;;;;;4978431;28;20284;-58
2022/12/18 12:51:38;;;;;;;35.07;19.17;;;-1.80;99.90;;;;;;4978730;28;20212;-59